»·PEaware :: N685SP KCMA-KBFL

N685SP :: KCMA-KBFL

FLIGHT INFORMATION

Flight Status: Arrived
Operator: Privately registered:
United States
More flights under this callsign
Pilot: Rex R. (14055)
Aircraft: CESSNA 172 SKYHAWK
(C172)
More flights by this aircraft type
Origin: KCMA Camarillo
United States
Destination: KBFL Meadows
United States
More flights between these airports :: More routes between these airports
Route: +
File this flight plan on PilotEdge
Remarks:
Altitude:
(Current/Filed)
6,500ft
Speed:
(Current/Filed)
0kts
Departed: 12-Jan-18 12:39 PM
Arrived: 12-Jan-18 01:22 PM
Distance/Time
Traveled:
73nm/0:43
Distance/Time
To Go:
Arrived

Flight Plot

Page will automatically refresh every two minutes.

Flight plan parsing failed; only flown route is shown


Map Options




Map Legend


Flown Route
Filed Route
Departure Airport
Arrival Airport
Navaid (VOR, NDB)
Fix

Horizontal Profiles

Position Reports

Time Latitude Longitude Heading Altitude Ground
Speed
12-Jan-18 12:37 34.210075 -119.077111 90 79ft 0kts
12-Jan-18 12:38 34.210075 -119.077111 90 79ft 0kts
12-Jan-18 12:39 34.210075 -119.077111 90 79ft 0kts
12-Jan-18 12:40 34.210823 -119.077139 289 79ft 8kts
12-Jan-18 12:41 34.210866 -119.080963 263 77ft 14kts
12-Jan-18 12:42 34.211557 -119.084549 358 74ft 8kts
12-Jan-18 12:43 34.212852 -119.084547 359 76ft 0kts
12-Jan-18 12:44 34.213685 -119.085208 269 76ft 17kts
12-Jan-18 12:45 34.215724 -119.106167 310 968ft 67kts
12-Jan-18 12:46 34.236735 -119.100888 28 1789ft 96kts
12-Jan-18 12:47 34.258639 -119.087449 18 2608ft 96kts
12-Jan-18 12:48 34.280077 -119.081264 8 3437ft 88kts
12-Jan-18 12:49 34.302924 -119.078394 2 4436ft 77kts
12-Jan-18 12:50 34.324178 -119.077140 1 5299ft 78kts
12-Jan-18 12:51 34.346127 -119.076340 0 6113ft 79kts
12-Jan-18 12:52 34.367752 -119.075807 0 6895ft 78kts
12-Jan-18 12:53 34.390064 -119.075338 0 7612ft 81kts
12-Jan-18 12:54 34.413140 -119.074893 0 8258ft 87kts
12-Jan-18 12:55 34.442653 -119.074176 0 8330ft 117kts
12-Jan-18 12:56 34.475722 -119.073479 0 8348ft 120kts
12-Jan-18 12:57 34.509040 -119.072895 0 8366ft 120kts
12-Jan-18 12:58 34.542308 -119.072360 0 8383ft 120kts
12-Jan-18 12:59 34.575622 -119.071838 0 8401ft 120kts
12-Jan-18 13:00 34.609026 -119.071307 0 8418ft 120kts
12-Jan-18 13:01 34.642353 -119.070782 0 8436ft 120kts
12-Jan-18 13:02 34.675712 -119.070254 0 8453ft 120kts
12-Jan-18 13:03 34.709063 -119.069727 0 8471ft 120kts
12-Jan-18 13:04 34.742496 -119.069198 0 8488ft 120kts
12-Jan-18 13:05 34.775920 -119.068669 0 8494ft 120kts
12-Jan-18 13:06 34.809393 -119.068136 0 8493ft 120kts
12-Jan-18 13:07 34.842982 -119.067602 0 8493ft 120kts
12-Jan-18 13:08 34.877431 -119.067050 0 8293ft 130kts
12-Jan-18 13:09 34.914237 -119.066447 0 7893ft 133kts
12-Jan-18 13:10 34.951357 -119.065790 0 7456ft 135kts
12-Jan-18 13:11 34.988223 -119.065011 0 6954ft 130kts
12-Jan-18 13:12 35.024192 -119.064422 0 6454ft 129kts
12-Jan-18 13:13 35.060079 -119.063849 0 5953ft 129kts
12-Jan-18 13:14 35.095940 -119.063273 0 5451ft 128kts
12-Jan-18 13:15 35.130961 -119.062710 0 4961ft 128kts
12-Jan-18 13:16 35.167307 -119.062121 0 4316ft 133kts
12-Jan-18 13:17 35.204097 -119.061523 0 3617ft 133kts
12-Jan-18 13:18 35.240981 -119.060930 0 2915ft 132kts
12-Jan-18 13:19 35.276800 -119.060359 0 2464ft 121kts
12-Jan-18 13:20 35.308866 -119.059874 0 2461ft 112kts
12-Jan-18 13:21 35.340064 -119.058352 19 2456ft 112kts
12-Jan-18 13:22 35.368814 -119.043511 21 2455ft 112kts
12-Jan-18 13:23 35.397802 -119.029329 21 2387ft 117kts
12-Jan-18 13:24 35.421021 -119.033293 216 1686ft 102kts
12-Jan-18 13:25 35.420498 -119.040901 268 1131ft 92kts
12-Jan-18 13:26 35.415452 -119.041788 359 1613ft 89kts
12-Jan-18 13:27 35.430068 -119.051712 311 764ft 60kts
12-Jan-18 13:28 35.436283 -119.057793 66 492ft 0kts
12-Jan-18 13:29 35.435911 -119.055280 38 496ft 10kts
12-Jan-18 13:30 35.436245 -119.055172 233 497ft 0kts
12-Jan-18 13:31 35.426535 -119.047422 313 1051ft 67kts
12-Jan-18 13:32 35.435907 -119.058133 7 490ft 9kts
12-Jan-18 13:33 35.435866 -119.056367 137 493ft 18kts

Navigation Log

Ident Type
Flight plan parsing failed, navigation log unavailable